Time;durP1;ratioP1;P1;durP2;ratioP2;P2;SDS_P1;SDS_P2;PMS_P1;PMS_P2;Temp;Humidity;BMP_temperature;BMP_pressure;BME280_temperature;BME280_humidity;BME280_pressure;Samples;Min_cycle;Max_cycle;Signal;HPM_P1;HPM_P2
2022/04/27 12:47:04;;;;;;;;;;;;;;;;;;347912;28;1794;-63
2022/04/27 12:47:16;;;;;;;;;;;;;;;;;;346988;28;809;-61
2022/04/27 12:47:26;;;;;;;;;;;;;;;;;;346807;28;1676;-61
2022/04/27 12:47:45;;;;;;;;;;;;;;;;;;346265;28;1747;-62
2022/04/27 12:47:56;;;;;;;;;;;;;;;;;;346825;28;948;-64
2022/04/27 12:48:06;;;;;;;;;;;;;;;;;;346828;28;896;-62
2022/04/27 12:48:26;;;;;;;;;;;;;;;;;;346895;28;829;-62
2022/04/27 12:48:37;;;;;;;;;;;;;;;;;;346924;28;868;-61
2022/04/27 12:48:58;;;;;;;;;;;;;;;;;;346698;28;3208;-62
2022/04/27 12:49:09;;;;;;;;;;;;;;;;;;345556;28;1480;-62
2022/04/27 12:49:24;;;;;;;;;;;;;;;;;;347059;28;1023;-62
2022/04/27 12:49:35;;;;;;;;;;;;;;;;;;348194;28;939;-62
2022/04/27 12:49:50;;;;;;;;;;;;;;;;;;348624;28;1514;-64
2022/04/27 12:50:00;;;;;;;;;;;;;;;;;;349629;28;764;-63
2022/04/27 12:50:11;;;;;;;;;;;;;;;;;;346925;28;962;-63
2022/04/27 12:50:21;;;;;;;;;;;;;;;;;;344380;28;1465;-62
2022/04/27 12:50:46;;;;;;;;;;;;;;;;;;344739;28;1748;-62
2022/04/27 12:50:58;;;;;;;;;;;;;;;;;;344171;28;1241;-63
2022/04/27 12:51:08;;;;;;;;;;;;;;;;;;345267;28;827;-68
2022/04/27 12:51:28;;;;;;;;;;;;;;;;;;342859;28;991;-62
2022/04/27 12:54:38;;;;;;;;;;;;;;;;;;350972;27;1359;-54
2022/04/27 12:54:50;;;;;;;;;;;;;;;;;;351159;28;910;-56
2022/04/27 12:55:00;;;;;;;;;;;;;;;;;;352380;28;1337;-54
2022/04/27 12:55:11;;;;;;;;;;;;;;;;;;350356;28;1970;-52
2022/04/27 12:55:21;;;;;;;;;;;;;;;;;;350989;28;887;-56
2022/04/27 12:55:31;;;;;;;;;;;;;;;;;;349603;28;986;-54
2022/04/27 12:55:42;;;;;;;;;;;;;;;;;;349675;28;959;-55
2022/04/27 12:56:06;;;;;;;;;;;;;;;;;;349632;28;923;-52
2022/04/27 12:56:19;;;;;;;;;;;;;;;;;;349120;28;1387;-55
2022/04/27 12:56:44;;;;;;;;;;;;;;;;;;353645;27;1785;-54
2022/04/27 12:57:42;;;;;;;;;;;;;;;;;;348221;28;1347;-59
2022/04/27 12:57:53;;;;;;;;;;;;;;;;;;347262;28;2326;-60
2022/04/27 12:58:03;;;;;;;;;;;;;;;;;;348627;28;1572;-55
2022/04/27 13:00:20;;;;;;;;;;;;;;;;;;348534;28;1745;-57
2022/04/27 13:00:38;;;;;;;;;;;;;;;;;;346498;28;3068;-55
2022/04/27 13:00:50;;;;;;;;;;;;;;;;;;345775;28;2677;-55
2022/04/27 13:01:00;;;;;;;;;;;;;;;;;;344041;28;912;-55
2022/04/27 13:01:26;;;;;;;;;;;;;;;;;;344245;28;2662;-56
2022/04/27 13:01:37;;;;;;;;;;;;;;;;;;342234;28;1958;-55
2022/04/27 13:01:56;;;;;;;;;;;;;;;;;;342741;28;1959;-54
2022/04/27 13:02:08;;;;;;;;;;;;;;;;;;342340;28;1428;-55
2022/04/27 13:02:18;;;;;;;;;;;;;;;;;;342773;28;904;-53
2022/04/27 13:02:29;;;;;;;;;;;;;;;;;;342900;28;829;-55
2022/04/27 13:02:39;;;;;;;;;;;;;;;;;;315634;28;10223;-55
2022/04/27 13:02:49;;;;;;;;;;;;;;;;;;342848;28;959;-52
2022/04/27 13:02:59;;;;;;;;;;;;;;;;;;318880;28;2167;-54
2022/04/27 13:03:09;;;;;;;;;;;;;;;;;;341636;28;19979;-55
2022/04/27 13:03:20;;;;;;;;;;;;;;;;;;317267;28;9263;-54
2022/04/27 13:03:31;;;;;;;;;;;;;;;;;;262412;28;1617009;-55
2022/04/27 13:03:43;;;;;;;;;;;;;;;;;;342801;28;910;-56
2022/04/27 13:03:54;;;;;;;;;;;;;;;;;;343165;28;1397;-54
2022/04/27 13:04:04;;;;;;;;;;;;;;;;;;344116;28;983;-54
2022/04/27 13:04:15;;;;;;;;;;;;;;;;;;344194;28;959;-54
2022/04/27 13:04:25;;;;;;;;;;;;;;;;;;344151;28;995;-54
2022/04/27 13:04:35;;;;;;;;;;;;;;;;;;344256;28;1055;-54
2022/04/27 13:04:46;;;;;;;;;;;;;;;;;;344183;28;908;-55
2022/04/27 13:04:56;;;;;;;;;;;;;;;;;;344235;28;1027;-54
2022/04/27 13:05:08;;;;;;;;;;;;;;;;;;344874;28;903;-55
2022/04/27 13:05:18;;;;;;;;;;;;;;;;;;345570;28;1046;-54
2022/04/27 13:05:28;;;;;;;;;;;;;;;;;;345696;28;1280;-54
2022/04/27 13:05:42;;;;;;;;;;;;;;;;;;346735;28;828;-53
2022/04/27 13:05:52;;;;;;;;;;;;;;;;;;346848;28;971;-54
2022/04/27 13:06:03;;;;;;;;;;;;;;;;;;346904;28;848;-54
2022/04/27 13:06:13;;;;;;;;;;;;;;;;;;346894;28;864;-54
2022/04/27 13:06:23;;;;;;;;;;;;;;;;;;345679;28;825;-54
2022/04/27 13:06:34;;;;;;;;;;;;;;;;;;345256;28;2885;-56
2022/04/27 13:06:44;;;;;;;;;;;;;;;;;;344075;28;876;-55
2022/04/27 13:06:54;;;;;;;;;;;;;;;;;;343980;28;824;-55
2022/04/27 13:07:04;;;;;;;;;;;;;;;;;;344083;28;947;-54
2022/04/27 13:07:14;;;;;;;;;;;;;;;;;;344131;28;880;-55
2022/04/27 13:07:53;;;;;;;;;;;;;;;;;;351045;27;1346;-56
2022/04/27 13:08:04;;;;;;;;;;;;;;;;;;349245;28;2615;-60
2022/04/27 13:08:14;;;;;;;;;;;;;;;;;;350116;28;1805;-56
2022/04/27 13:08:24;;;;;;;;;;;;;;;;;;348045;28;1846;-59
2022/04/27 13:08:35;;;;;;;;;;;;;;;;;;347447;28;1677;-56
2022/04/27 13:08:45;;;;;;;;;;;;;;;;;;344162;28;1813;-57
